sensor_id;sensor_type;location;lat;lon;timestamp;temperature;humidity
61253;DHT22;47127;47.516;8.596;2023-06-22T00:01:50;22.10;99.90
61253;DHT22;47127;47.516;8.596;2023-06-22T00:04:16;22.10;99.90
61253;DHT22;47127;47.516;8.596;2023-06-22T00:06:41;22.10;99.90
61253;DHT22;47127;47.516;8.596;2023-06-22T00:09:07;21.90;99.90
61253;DHT22;47127;47.516;8.596;2023-06-22T00:11:33;21.90;99.90
61253;DHT22;47127;47.516;8.596;2023-06-22T00:13:59;21.80;99.90
61253;DHT22;47127;47.516;8.596;2023-06-22T00:16:25;21.70;99.90
61253;DHT22;47127;47.516;8.596;2023-06-22T00:18:50;21.60;99.90
61253;DHT22;47127;47.516;8.596;2023-06-22T00:21:16;21.60;99.90
61253;DHT22;47127;47.516;8.596;2023-06-22T00:23:42;21.40;99.90
61253;DHT22;47127;47.516;8.596;2023-06-22T00:26:08;21.30;99.90
61253;DHT22;47127;47.516;8.596;2023-06-22T00:28:34;21.30;99.90
61253;DHT22;47127;47.516;8.596;2023-06-22T00:31:00;21.30;99.90
61253;DHT22;47127;47.516;8.596;2023-06-22T00:33:26;21.30;99.90
61253;DHT22;47127;47.516;8.596;2023-06-22T00:35:52;21.20;99.90
61253;DHT22;47127;47.516;8.596;2023-06-22T00:38:18;21.20;99.90
61253;DHT22;47127;47.516;8.596;2023-06-22T00:40:44;21.30;99.90
61253;DHT22;47127;47.516;8.596;2023-06-22T00:43:10;21.30;99.90
61253;DHT22;47127;47.516;8.596;2023-06-22T00:45:35;21.30;99.90
61253;DHT22;47127;47.516;8.596;2023-06-22T00:48:02;21.40;99.90
61253;DHT22;47127;47.516;8.596;2023-06-22T00:50:30;21.40;99.90
61253;DHT22;47127;47.516;8.596;2023-06-22T00:53:00;21.50;99.90
61253;DHT22;47127;47.516;8.596;2023-06-22T00:55:26;21.50;99.90
61253;DHT22;47127;47.516;8.596;2023-06-22T00:57:52;21.40;99.90
61253;DHT22;47127;47.516;8.596;2023-06-22T01:00:23;21.40;99.90
61253;DHT22;47127;47.516;8.596;2023-06-22T01:02:50;21.30;99.90
61253;DHT22;47127;47.516;8.596;2023-06-22T01:05:20;21.10;99.90
61253;DHT22;47127;47.516;8.596;2023-06-22T01:07:55;20.90;99.90
61253;DHT22;47127;47.516;8.596;2023-06-22T01:13:02;21.00;99.90
61253;DHT22;47127;47.516;8.596;2023-06-22T01:16:03;21.10;99.90
61253;DHT22;47127;47.516;8.596;2023-06-22T01:18:32;21.20;99.90
61253;DHT22;47127;47.516;8.596;2023-06-22T01:21:03;21.40;99.90
61253;DHT22;47127;47.516;8.596;2023-06-22T01:23:56;21.50;99.90
61253;DHT22;47127;47.516;8.596;2023-06-22T01:26:48;21.50;99.90
61253;DHT22;47127;47.516;8.596;2023-06-22T01:29:20;21.50;99.90
61253;DHT22;47127;47.516;8.596;2023-06-22T01:31:48;21.40;99.90
61253;DHT22;47127;47.516;8.596;2023-06-22T01:34:15;21.40;99.90
61253;DHT22;47127;47.516;8.596;2023-06-22T01:36:42;21.30;99.90
61253;DHT22;47127;47.516;8.596;2023-06-22T01:39:09;21.20;99.90
61253;DHT22;47127;47.516;8.596;2023-06-22T01:41:36;21.20;99.90
61253;DHT22;47127;47.516;8.596;2023-06-22T01:44:05;21.00;99.90
61253;DHT22;47127;47.516;8.596;2023-06-22T01:46:32;20.90;99.90
61253;DHT22;47127;47.516;8.596;2023-06-22T01:48:57;21.00;99.90
61253;DHT22;47127;47.516;8.596;2023-06-22T01:51:24;20.90;99.90
61253;DHT22;47127;47.516;8.596;2023-06-22T01:53:49;20.90;99.90
61253;DHT22;47127;47.516;8.596;2023-06-22T01:56:17;20.90;99.90
61253;DHT22;47127;47.516;8.596;2023-06-22T01:58:52;20.70;99.90
61253;DHT22;47127;47.516;8.596;2023-06-22T02:01:24;20.80;99.90
61253;DHT22;47127;47.516;8.596;2023-06-22T02:04:01;20.70;99.90
61253;DHT22;47127;47.516;8.596;2023-06-22T02:06:33;20.80;99.90
61253;DHT22;47127;47.516;8.596;2023-06-22T02:09:02;20.60;99.90
61253;DHT22;47127;47.516;8.596;2023-06-22T02:11:30;20.60;99.90
61253;DHT22;47127;47.516;8.596;2023-06-22T02:13:57;20.60;99.90
61253;DHT22;47127;47.516;8.596;2023-06-22T02:16:23;20.60;99.90
61253;DHT22;47127;47.516;8.596;2023-06-22T02:18:49;20.60;99.90
61253;DHT22;47127;47.516;8.596;2023-06-22T02:21:18;20.70;99.90
61253;DHT22;47127;47.516;8.596;2023-06-22T02:23:44;20.70;99.90
61253;DHT22;47127;47.516;8.596;2023-06-22T02:26:10;20.70;99.90
61253;DHT22;47127;47.516;8.596;2023-06-22T02:28:35;20.70;99.90
61253;DHT22;47127;47.516;8.596;2023-06-22T02:31:01;20.50;99.90
61253;DHT22;47127;47.516;8.596;2023-06-22T02:33:26;20.50;99.90
61253;DHT22;47127;47.516;8.596;2023-06-22T02:35:52;20.40;99.90
61253;DHT22;47127;47.516;8.596;2023-06-22T02:38:18;20.40;99.90
61253;DHT22;47127;47.516;8.596;2023-06-22T02:40:45;20.40;99.90
61253;DHT22;47127;47.516;8.596;2023-06-22T02:43:10;20.50;99.90
61253;DHT22;47127;47.516;8.596;2023-06-22T02:45:36;20.50;99.90
61253;DHT22;47127;47.516;8.596;2023-06-22T02:48:01;20.60;99.90
61253;DHT22;47127;47.516;8.596;2023-06-22T02:50:27;20.70;99.90
61253;DHT22;47127;47.516;8.596;2023-06-22T02:52:52;20.70;99.90
61253;DHT22;47127;47.516;8.596;2023-06-22T02:55:18;20.70;99.90
61253;DHT22;47127;47.516;8.596;2023-06-22T02:57:43;20.60;99.90
61253;DHT22;47127;47.516;8.596;2023-06-22T03:00:11;20.50;99.90
61253;DHT22;47127;47.516;8.596;2023-06-22T03:02:47;20.40;99.90
61253;DHT22;47127;47.516;8.596;2023-06-22T03:05:14;20.20;99.90
61253;DHT22;47127;47.516;8.596;2023-06-22T03:07:41;20.10;99.90
61253;DHT22;47127;47.516;8.596;2023-06-22T03:10:09;20.10;99.90
61253;DHT22;47127;47.516;8.596;2023-06-22T03:12:35;20.20;99.90
61253;DHT22;47127;47.516;8.596;2023-06-22T03:15:00;20.30;99.90
61253;DHT22;47127;47.516;8.596;2023-06-22T03:17:26;20.30;99.90
61253;DHT22;47127;47.516;8.596;2023-06-22T03:19:51;20.20;99.90
61253;DHT22;47127;47.516;8.596;2023-06-22T03:22:17;20.20;99.90
61253;DHT22;47127;47.516;8.596;2023-06-22T03:24:42;20.10;99.90
61253;DHT22;47127;47.516;8.596;2023-06-22T03:27:08;20.10;99.90
61253;DHT22;47127;47.516;8.596;2023-06-22T03:29:34;20.10;99.90
61253;DHT22;47127;47.516;8.596;2023-06-22T03:31:59;20.20;99.90
61253;DHT22;47127;47.516;8.596;2023-06-22T03:34:25;20.30;99.90
61253;DHT22;47127;47.516;8.596;2023-06-22T03:36:50;20.20;99.90
61253;DHT22;47127;47.516;8.596;2023-06-22T03:39:16;20.30;99.90
61253;DHT22;47127;47.516;8.596;2023-06-22T03:41:42;20.30;99.90
61253;DHT22;47127;47.516;8.596;2023-06-22T03:44:07;20.20;99.90
61253;DHT22;47127;47.516;8.596;2023-06-22T03:46:37;20.10;99.90
61253;DHT22;47127;47.516;8.596;2023-06-22T03:49:03;19.90;99.90
61253;DHT22;47127;47.516;8.596;2023-06-22T03:51:30;19.80;99.90
61253;DHT22;47127;47.516;8.596;2023-06-22T03:53:56;19.80;99.90
61253;DHT22;47127;47.516;8.596;2023-06-22T03:56:21;19.90;99.90
61253;DHT22;47127;47.516;8.596;2023-06-22T03:58:47;19.90;99.90
61253;DHT22;47127;47.516;8.596;2023-06-22T04:01:12;20.00;99.90
61253;DHT22;47127;47.516;8.596;2023-06-22T04:03:38;19.90;99.90
61253;DHT22;47127;47.516;8.596;2023-06-22T04:06:04;20.00;99.90
61253;DHT22;47127;47.516;8.596;2023-06-22T04:08:30;20.10;99.90
61253;DHT22;47127;47.516;8.596;2023-06-22T04:10:55;20.20;99.90
61253;DHT22;47127;47.516;8.596;2023-06-22T04:13:21;20.20;99.90
61253;DHT22;47127;47.516;8.596;2023-06-22T04:15:48;20.20;99.90
61253;DHT22;47127;47.516;8.596;2023-06-22T04:18:13;20.10;99.90
61253;DHT22;47127;47.516;8.596;2023-06-22T04:20:39;20.10;99.90
61253;DHT22;47127;47.516;8.596;2023-06-22T04:23:05;20.10;99.90
61253;DHT22;47127;47.516;8.596;2023-06-22T04:25:30;20.10;99.90
61253;DHT22;47127;47.516;8.596;2023-06-22T04:27:56;20.10;99.90
61253;DHT22;47127;47.516;8.596;2023-06-22T04:30:21;20.10;99.90
61253;DHT22;47127;47.516;8.596;2023-06-22T04:32:47;20.20;99.90
61253;DHT22;47127;47.516;8.596;2023-06-22T04:35:24;20.20;99.90
61253;DHT22;47127;47.516;8.596;2023-06-22T04:37:49;20.20;99.90
61253;DHT22;47127;47.516;8.596;2023-06-22T04:40:15;20.20;99.90
61253;DHT22;47127;47.516;8.596;2023-06-22T04:42:41;20.20;99.90
61253;DHT22;47127;47.516;8.596;2023-06-22T04:45:17;20.20;99.90
61253;DHT22;47127;47.516;8.596;2023-06-22T04:47:43;20.30;99.90
61253;DHT22;47127;47.516;8.596;2023-06-22T04:50:12;20.40;99.90
61253;DHT22;47127;47.516;8.596;2023-06-22T04:52:38;20.40;99.90
61253;DHT22;47127;47.516;8.596;2023-06-22T04:55:04;20.50;99.90
61253;DHT22;47127;47.516;8.596;2023-06-22T04:57:30;20.50;99.90
61253;DHT22;47127;47.516;8.596;2023-06-22T04:59:58;20.50;99.90
61253;DHT22;47127;47.516;8.596;2023-06-22T05:02:41;20.40;99.90
61253;DHT22;47127;47.516;8.596;2023-06-22T05:05:07;20.50;99.90
61253;DHT22;47127;47.516;8.596;2023-06-22T05:07:34;20.60;99.90
61253;DHT22;47127;47.516;8.596;2023-06-22T05:10:00;20.60;99.90
61253;DHT22;47127;47.516;8.596;2023-06-22T05:12:27;20.70;99.90
61253;DHT22;47127;47.516;8.596;2023-06-22T05:14:54;20.70;99.90
61253;DHT22;47127;47.516;8.596;2023-06-22T05:17:19;20.70;99.90
61253;DHT22;47127;47.516;8.596;2023-06-22T05:19:45;20.70;99.90
61253;DHT22;47127;47.516;8.596;2023-06-22T05:22:14;20.70;99.90
61253;DHT22;47127;47.516;8.596;2023-06-22T05:24:40;20.80;99.90
61253;DHT22;47127;47.516;8.596;2023-06-22T05:27:06;20.80;99.90
61253;DHT22;47127;47.516;8.596;2023-06-22T05:29:32;20.90;99.90
61253;DHT22;47127;47.516;8.596;2023-06-22T05:31:57;21.00;99.90
61253;DHT22;47127;47.516;8.596;2023-06-22T05:34:23;21.10;99.90
61253;DHT22;47127;47.516;8.596;2023-06-22T05:36:48;21.20;99.90
61253;DHT22;47127;47.516;8.596;2023-06-22T05:39:14;21.30;99.90
61253;DHT22;47127;47.516;8.596;2023-06-22T05:41:41;21.30;99.90
61253;DHT22;47127;47.516;8.596;2023-06-22T05:44:06;21.30;99.90
61253;DHT22;47127;47.516;8.596;2023-06-22T05:46:32;21.30;99.90
61253;DHT22;47127;47.516;8.596;2023-06-22T05:48:58;21.40;99.90
61253;DHT22;47127;47.516;8.596;2023-06-22T05:51:23;21.50;99.90
61253;DHT22;47127;47.516;8.596;2023-06-22T05:53:52;21.50;99.90
61253;DHT22;47127;47.516;8.596;2023-06-22T05:56:18;21.60;99.90
61253;DHT22;47127;47.516;8.596;2023-06-22T05:58:44;21.70;99.90
61253;DHT22;47127;47.516;8.596;2023-06-22T06:01:09;21.80;99.90
61253;DHT22;47127;47.516;8.596;2023-06-22T06:03:35;21.80;99.90
61253;DHT22;47127;47.516;8.596;2023-06-22T06:06:06;22.10;99.90
61253;DHT22;47127;47.516;8.596;2023-06-22T06:08:32;22.20;99.90
61253;DHT22;47127;47.516;8.596;2023-06-22T06:10:58;22.20;99.90
61253;DHT22;47127;47.516;8.596;2023-06-22T06:13:23;22.40;99.90
61253;DHT22;47127;47.516;8.596;2023-06-22T06:15:49;22.40;99.90
61253;DHT22;47127;47.516;8.596;2023-06-22T06:18:17;22.50;99.90
61253;DHT22;47127;47.516;8.596;2023-06-22T06:20:42;22.40;99.90
61253;DHT22;47127;47.516;8.596;2023-06-22T06:23:08;22.60;99.90
61253;DHT22;47127;47.516;8.596;2023-06-22T06:25:34;22.70;99.90
61253;DHT22;47127;47.516;8.596;2023-06-22T06:27:59;22.90;99.90
61253;DHT22;47127;47.516;8.596;2023-06-22T06:30:25;23.00;99.90
61253;DHT22;47127;47.516;8.596;2023-06-22T06:32:51;23.10;99.90
61253;DHT22;47127;47.516;8.596;2023-06-22T06:35:16;23.20;99.90
61253;DHT22;47127;47.516;8.596;2023-06-22T06:37:44;23.10;99.90
61253;DHT22;47127;47.516;8.596;2023-06-22T06:40:11;23.20;99.90
61253;DHT22;47127;47.516;8.596;2023-06-22T06:42:41;23.20;99.90
61253;DHT22;47127;47.516;8.596;2023-06-22T06:45:17;23.20;99.90
61253;DHT22;47127;47.516;8.596;2023-06-22T06:47:43;23.30;99.90
61253;DHT22;47127;47.516;8.596;2023-06-22T06:50:09;23.40;99.90
61253;DHT22;47127;47.516;8.596;2023-06-22T06:52:35;23.40;99.90
61253;DHT22;47127;47.516;8.596;2023-06-22T06:55:02;23.40;99.90
61253;DHT22;47127;47.516;8.596;2023-06-22T06:57:35;23.60;99.90
61253;DHT22;47127;47.516;8.596;2023-06-22T07:00:08;23.40;99.90
61253;DHT22;47127;47.516;8.596;2023-06-22T07:02:40;23.50;99.90
61253;DHT22;47127;47.516;8.596;2023-06-22T07:05:06;23.60;99.90
61253;DHT22;47127;47.516;8.596;2023-06-22T07:07:32;23.70;99.90
61253;DHT22;47127;47.516;8.596;2023-06-22T07:09:58;23.80;99.90
61253;DHT22;47127;47.516;8.596;2023-06-22T07:12:24;23.90;99.90
61253;DHT22;47127;47.516;8.596;2023-06-22T07:14:49;24.20;99.90
61253;DHT22;47127;47.516;8.596;2023-06-22T07:17:17;24.30;99.90
61253;DHT22;47127;47.516;8.596;2023-06-22T07:19:43;24.30;99.90
61253;DHT22;47127;47.516;8.596;2023-06-22T07:22:08;24.30;99.90
61253;DHT22;47127;47.516;8.596;2023-06-22T07:24:35;24.40;99.90
61253;DHT22;47127;47.516;8.596;2023-06-22T07:27:02;24.40;99.90
61253;DHT22;47127;47.516;8.596;2023-06-22T07:29:29;24.30;99.90
61253;DHT22;47127;47.516;8.596;2023-06-22T07:31:54;24.20;99.90
61253;DHT22;47127;47.516;8.596;2023-06-22T07:34:22;23.90;99.90
61253;DHT22;47127;47.516;8.596;2023-06-22T07:36:48;23.60;99.90
61253;DHT22;47127;47.516;8.596;2023-06-22T07:39:13;23.50;99.90
61253;DHT22;47127;47.516;8.596;2023-06-22T07:41:40;23.40;99.90
61253;DHT22;47127;47.516;8.596;2023-06-22T07:44:08;23.30;99.90
61253;DHT22;47127;47.516;8.596;2023-06-22T07:46:34;23.10;99.90
61253;DHT22;47127;47.516;8.596;2023-06-22T07:49:00;23.10;99.90
61253;DHT22;47127;47.516;8.596;2023-06-22T07:51:29;23.20;99.90
61253;DHT22;47127;47.516;8.596;2023-06-22T07:53:55;23.10;99.90
61253;DHT22;47127;47.516;8.596;2023-06-22T07:56:21;23.10;99.90
61253;DHT22;47127;47.516;8.596;2023-06-22T07:58:47;23.20;99.90
61253;DHT22;47127;47.516;8.596;2023-06-22T08:01:33;23.30;99.90
61253;DHT22;47127;47.516;8.596;2023-06-22T08:03:58;23.40;99.90
61253;DHT22;47127;47.516;8.596;2023-06-22T08:06:24;23.60;99.90
61253;DHT22;47127;47.516;8.596;2023-06-22T08:08:50;23.70;99.90
61253;DHT22;47127;47.516;8.596;2023-06-22T08:11:18;23.70;99.90
61253;DHT22;47127;47.516;8.596;2023-06-22T08:13:44;24.00;99.90
61253;DHT22;47127;47.516;8.596;2023-06-22T08:16:09;24.30;99.90
61253;DHT22;47127;47.516;8.596;2023-06-22T08:18:35;24.40;99.90
61253;DHT22;47127;47.516;8.596;2023-06-22T08:21:01;24.50;99.90
61253;DHT22;47127;47.516;8.596;2023-06-22T08:23:27;24.90;99.90
61253;DHT22;47127;47.516;8.596;2023-06-22T08:25:52;25.20;99.90
61253;DHT22;47127;47.516;8.596;2023-06-22T08:28:18;25.30;99.90
61253;DHT22;47127;47.516;8.596;2023-06-22T08:30:43;25.30;99.90
61253;DHT22;47127;47.516;8.596;2023-06-22T08:33:09;25.30;99.90
61253;DHT22;47127;47.516;8.596;2023-06-22T08:35:34;25.20;99.90
61253;DHT22;47127;47.516;8.596;2023-06-22T08:38:00;25.30;99.90
61253;DHT22;47127;47.516;8.596;2023-06-22T08:40:27;25.50;99.90
61253;DHT22;47127;47.516;8.596;2023-06-22T08:42:53;25.60;99.90
61253;DHT22;47127;47.516;8.596;2023-06-22T08:45:18;25.80;99.90
61253;DHT22;47127;47.516;8.596;2023-06-22T08:47:44;25.80;99.90
61253;DHT22;47127;47.516;8.596;2023-06-22T08:50:10;25.80;99.90
61253;DHT22;47127;47.516;8.596;2023-06-22T08:52:37;25.90;99.90
61253;DHT22;47127;47.516;8.596;2023-06-22T08:55:03;26.20;99.90
61253;DHT22;47127;47.516;8.596;2023-06-22T08:57:29;26.30;99.90
61253;DHT22;47127;47.516;8.596;2023-06-22T08:59:56;26.40;99.90
61253;DHT22;47127;47.516;8.596;2023-06-22T09:02:26;26.40;99.90
61253;DHT22;47127;47.516;8.596;2023-06-22T09:04:57;26.40;99.90
61253;DHT22;47127;47.516;8.596;2023-06-22T09:07:23;26.40;99.90
61253;DHT22;47127;47.516;8.596;2023-06-22T09:09:50;26.40;99.90
61253;DHT22;47127;47.516;8.596;2023-06-22T09:12:16;26.40;99.90
61253;DHT22;47127;47.516;8.596;2023-06-22T09:14:42;26.40;99.90
61253;DHT22;47127;47.516;8.596;2023-06-22T09:17:07;26.50;99.90
61253;DHT22;47127;47.516;8.596;2023-06-22T09:19:33;26.60;99.90
61253;DHT22;47127;47.516;8.596;2023-06-22T09:21:59;26.70;99.90
61253;DHT22;47127;47.516;8.596;2023-06-22T09:24:25;26.80;99.90
61253;DHT22;47127;47.516;8.596;2023-06-22T09:26:51;27.00;99.90
61253;DHT22;47127;47.516;8.596;2023-06-22T09:29:16;27.20;99.90
61253;DHT22;47127;47.516;8.596;2023-06-22T09:31:42;27.30;99.90
61253;DHT22;47127;47.516;8.596;2023-06-22T09:34:08;27.40;99.90
61253;DHT22;47127;47.516;8.596;2023-06-22T09:36:33;27.50;99.90
61253;DHT22;47127;47.516;8.596;2023-06-22T09:38:59;27.60;99.90
61253;DHT22;47127;47.516;8.596;2023-06-22T09:41:28;27.60;99.90
61253;DHT22;47127;47.516;8.596;2023-06-22T09:43:53;27.80;99.90
61253;DHT22;47127;47.516;8.596;2023-06-22T09:46:19;27.90;99.90
61253;DHT22;47127;47.516;8.596;2023-06-22T09:48:47;27.90;99.90
61253;DHT22;47127;47.516;8.596;2023-06-22T09:51:12;27.80;99.90
61253;DHT22;47127;47.516;8.596;2023-06-22T09:53:38;27.80;99.90
61253;DHT22;47127;47.516;8.596;2023-06-22T09:56:03;27.90;99.90
61253;DHT22;47127;47.516;8.596;2023-06-22T09:58:29;28.00;99.90
61253;DHT22;47127;47.516;8.596;2023-06-22T10:00:55;28.00;99.90
61253;DHT22;47127;47.516;8.596;2023-06-22T10:03:20;28.00;99.90
61253;DHT22;47127;47.516;8.596;2023-06-22T10:05:46;28.10;99.90
61253;DHT22;47127;47.516;8.596;2023-06-22T10:08:12;28.30;99.90
61253;DHT22;47127;47.516;8.596;2023-06-22T10:10:38;28.50;99.90
61253;DHT22;47127;47.516;8.596;2023-06-22T10:13:08;28.50;99.90
61253;DHT22;47127;47.516;8.596;2023-06-22T10:15:36;28.60;99.90
61253;DHT22;47127;47.516;8.596;2023-06-22T10:18:02;28.80;99.90
61253;DHT22;47127;47.516;8.596;2023-06-22T10:20:28;28.80;99.90
61253;DHT22;47127;47.516;8.596;2023-06-22T10:22:54;28.90;99.90
61253;DHT22;47127;47.516;8.596;2023-06-22T10:25:19;28.70;99.90
61253;DHT22;47127;47.516;8.596;2023-06-22T10:27:45;28.70;99.90
61253;DHT22;47127;47.516;8.596;2023-06-22T10:30:12;28.70;99.90
61253;DHT22;47127;47.516;8.596;2023-06-22T10:32:41;28.60;99.90
61253;DHT22;47127;47.516;8.596;2023-06-22T10:35:09;28.70;99.90
61253;DHT22;47127;47.516;8.596;2023-06-22T10:37:36;28.70;99.70
61253;DHT22;47127;47.516;8.596;2023-06-22T10:40:02;28.70;99.30
61253;DHT22;47127;47.516;8.596;2023-06-22T10:42:29;28.60;99.90
61253;DHT22;47127;47.516;8.596;2023-06-22T10:44:54;28.70;99.50
61253;DHT22;47127;47.516;8.596;2023-06-22T10:47:20;28.70;99.30
61253;DHT22;47127;47.516;8.596;2023-06-22T10:49:45;28.80;99.20
61253;DHT22;47127;47.516;8.596;2023-06-22T10:52:11;29.10;99.50
61253;DHT22;47127;47.516;8.596;2023-06-22T10:54:37;29.00;98.60
61253;DHT22;47127;47.516;8.596;2023-06-22T10:57:03;29.00;98.60
61253;DHT22;47127;47.516;8.596;2023-06-22T10:59:29;29.10;98.50
61253;DHT22;47127;47.516;8.596;2023-06-22T11:01:58;29.30;98.20
61253;DHT22;47127;47.516;8.596;2023-06-22T11:04:24;29.30;97.90
61253;DHT22;47127;47.516;8.596;2023-06-22T11:06:50;29.30;98.60
61253;DHT22;47127;47.516;8.596;2023-06-22T11:09:16;29.30;98.00
61253;DHT22;47127;47.516;8.596;2023-06-22T11:11:51;29.60;97.20
61253;DHT22;47127;47.516;8.596;2023-06-22T11:14:20;29.80;97.20
61253;DHT22;47127;47.516;8.596;2023-06-22T11:16:46;29.90;96.90
61253;DHT22;47127;47.516;8.596;2023-06-22T11:19:14;29.60;97.10
61253;DHT22;47127;47.516;8.596;2023-06-22T11:21:40;29.60;97.30
61253;DHT22;47127;47.516;8.596;2023-06-22T11:24:06;29.20;98.00
61253;DHT22;47127;47.516;8.596;2023-06-22T11:26:31;29.00;98.60
61253;DHT22;47127;47.516;8.596;2023-06-22T11:28:58;28.90;98.60
61253;DHT22;47127;47.516;8.596;2023-06-22T11:31:24;28.80;99.20
61253;DHT22;47127;47.516;8.596;2023-06-22T11:33:49;28.80;99.40
61253;DHT22;47127;47.516;8.596;2023-06-22T11:36:15;29.00;99.60
61253;DHT22;47127;47.516;8.596;2023-06-22T11:38:41;29.00;98.90
61253;DHT22;47127;47.516;8.596;2023-06-22T11:41:08;28.90;99.30
61253;DHT22;47127;47.516;8.596;2023-06-22T11:43:34;28.90;99.50
61253;DHT22;47127;47.516;8.596;2023-06-22T11:46:03;28.50;99.70
61253;DHT22;47127;47.516;8.596;2023-06-22T11:48:29;28.40;99.50
61253;DHT22;47127;47.516;8.596;2023-06-22T11:50:54;28.30;99.50
61253;DHT22;47127;47.516;8.596;2023-06-22T11:53:21;28.20;99.90
61253;DHT22;47127;47.516;8.596;2023-06-22T11:55:48;28.30;99.90
61253;DHT22;47127;47.516;8.596;2023-06-22T11:58:14;28.20;99.90
61253;DHT22;47127;47.516;8.596;2023-06-22T12:00:40;28.30;99.90
61253;DHT22;47127;47.516;8.596;2023-06-22T12:03:05;28.30;99.90
61253;DHT22;47127;47.516;8.596;2023-06-22T12:05:31;28.40;99.90
61253;DHT22;47127;47.516;8.596;2023-06-22T12:07:56;28.50;99.90
61253;DHT22;47127;47.516;8.596;2023-06-22T12:10:22;28.50;99.90
61253;DHT22;47127;47.516;8.596;2023-06-22T12:12:48;28.60;99.90
61253;DHT22;47127;47.516;8.596;2023-06-22T12:15:14;28.60;99.90
61253;DHT22;47127;47.516;8.596;2023-06-22T12:17:40;28.70;99.90
61253;DHT22;47127;47.516;8.596;2023-06-22T12:20:06;28.40;99.90
61253;DHT22;47127;47.516;8.596;2023-06-22T12:22:33;28.30;99.90
61253;DHT22;47127;47.516;8.596;2023-06-22T12:24:58;28.10;99.90
61253;DHT22;47127;47.516;8.596;2023-06-22T12:27:24;28.10;99.90
61253;DHT22;47127;47.516;8.596;2023-06-22T12:29:50;28.00;99.90
61253;DHT22;47127;47.516;8.596;2023-06-22T12:32:16;27.80;99.90
61253;DHT22;47127;47.516;8.596;2023-06-22T12:34:44;27.80;99.90
61253;DHT22;47127;47.516;8.596;2023-06-22T12:37:10;27.80;99.90
61253;DHT22;47127;47.516;8.596;2023-06-22T12:39:36;27.80;99.90
61253;DHT22;47127;47.516;8.596;2023-06-22T12:42:02;27.90;99.90
61253;DHT22;47127;47.516;8.596;2023-06-22T12:44:27;27.90;99.90
61253;DHT22;47127;47.516;8.596;2023-06-22T12:46:53;27.90;99.90
61253;DHT22;47127;47.516;8.596;2023-06-22T12:49:18;27.80;99.90
61253;DHT22;47127;47.516;8.596;2023-06-22T12:51:44;27.80;99.90
61253;DHT22;47127;47.516;8.596;2023-06-22T12:54:11;27.90;99.90
61253;DHT22;47127;47.516;8.596;2023-06-22T12:56:38;27.70;99.90
61253;DHT22;47127;47.516;8.596;2023-06-22T12:59:04;27.80;99.90
61253;DHT22;47127;47.516;8.596;2023-06-22T13:01:33;27.90;99.90
61253;DHT22;47127;47.516;8.596;2023-06-22T13:03:58;28.00;99.90
61253;DHT22;47127;47.516;8.596;2023-06-22T13:06:24;28.20;99.90
61253;DHT22;47127;47.516;8.596;2023-06-22T13:08:50;28.20;99.90
61253;DHT22;47127;47.516;8.596;2023-06-22T13:11:16;28.60;99.90
61253;DHT22;47127;47.516;8.596;2023-06-22T13:13:41;28.90;99.90
61253;DHT22;47127;47.516;8.596;2023-06-22T13:16:07;29.40;99.90
61253;DHT22;47127;47.516;8.596;2023-06-22T13:18:33;29.70;99.90
61253;DHT22;47127;47.516;8.596;2023-06-22T13:21:04;29.80;99.90
61253;DHT22;47127;47.516;8.596;2023-06-22T13:23:30;29.90;99.90
61253;DHT22;47127;47.516;8.596;2023-06-22T13:25:57;30.10;99.90
61253;DHT22;47127;47.516;8.596;2023-06-22T13:28:23;30.00;99.50
61253;DHT22;47127;47.516;8.596;2023-06-22T13:30:48;29.80;99.60
61253;DHT22;47127;47.516;8.596;2023-06-22T13:33:14;29.60;97.80
61253;DHT22;47127;47.516;8.596;2023-06-22T13:35:40;29.80;97.80
61253;DHT22;47127;47.516;8.596;2023-06-22T13:38:08;29.50;97.20
61253;DHT22;47127;47.516;8.596;2023-06-22T13:40:34;29.30;97.20
61253;DHT22;47127;47.516;8.596;2023-06-22T13:43:00;29.30;96.10
61253;DHT22;47127;47.516;8.596;2023-06-22T13:45:26;29.20;96.20
61253;DHT22;47127;47.516;8.596;2023-06-22T13:47:52;28.90;96.40
61253;DHT22;47127;47.516;8.596;2023-06-22T13:50:17;28.90;96.30
61253;DHT22;47127;47.516;8.596;2023-06-22T13:52:43;28.90;96.40
61253;DHT22;47127;47.516;8.596;2023-06-22T13:55:09;28.90;96.00
61253;DHT22;47127;47.516;8.596;2023-06-22T13:57:35;28.90;96.10
61253;DHT22;47127;47.516;8.596;2023-06-22T14:00:01;28.80;96.20
61253;DHT22;47127;47.516;8.596;2023-06-22T14:02:29;28.50;96.30
61253;DHT22;47127;47.516;8.596;2023-06-22T14:04:54;28.40;96.50
61253;DHT22;47127;47.516;8.596;2023-06-22T14:07:20;28.10;96.00
61253;DHT22;47127;47.516;8.596;2023-06-22T14:09:49;27.90;96.70
61253;DHT22;47127;47.516;8.596;2023-06-22T14:12:19;27.80;96.80
61253;DHT22;47127;47.516;8.596;2023-06-22T14:14:44;27.60;96.80
61253;DHT22;47127;47.516;8.596;2023-06-22T14:17:10;27.40;97.00
61253;DHT22;47127;47.516;8.596;2023-06-22T14:19:36;27.40;97.10
61253;DHT22;47127;47.516;8.596;2023-06-22T14:22:02;27.30;97.10
61253;DHT22;47127;47.516;8.596;2023-06-22T14:24:28;27.20;97.60
61253;DHT22;47127;47.516;8.596;2023-06-22T14:26:54;27.10;98.00
61253;DHT22;47127;47.516;8.596;2023-06-22T14:29:21;27.10;98.50
61253;DHT22;47127;47.516;8.596;2023-06-22T14:31:48;27.20;98.70
61253;DHT22;47127;47.516;8.596;2023-06-22T14:34:14;27.20;98.40
61253;DHT22;47127;47.516;8.596;2023-06-22T14:36:40;27.10;98.40
61253;DHT22;47127;47.516;8.596;2023-06-22T14:39:06;26.70;99.60
61253;DHT22;47127;47.516;8.596;2023-06-22T14:41:31;26.40;99.90
61253;DHT22;47127;47.516;8.596;2023-06-22T14:43:57;26.20;99.90
61253;DHT22;47127;47.516;8.596;2023-06-22T14:46:23;25.90;99.90
61253;DHT22;47127;47.516;8.596;2023-06-22T14:48:48;25.80;99.90
61253;DHT22;47127;47.516;8.596;2023-06-22T14:51:14;25.80;99.90
61253;DHT22;47127;47.516;8.596;2023-06-22T14:53:41;25.80;99.90
61253;DHT22;47127;47.516;8.596;2023-06-22T14:56:06;25.80;99.90
61253;DHT22;47127;47.516;8.596;2023-06-22T14:58:32;25.90;99.90
61253;DHT22;47127;47.516;8.596;2023-06-22T15:01:02;25.80;99.90
61253;DHT22;47127;47.516;8.596;2023-06-22T15:03:29;25.90;99.90
61253;DHT22;47127;47.516;8.596;2023-06-22T15:05:56;26.00;99.90
61253;DHT22;47127;47.516;8.596;2023-06-22T15:08:22;26.10;99.90
61253;DHT22;47127;47.516;8.596;2023-06-22T15:10:48;26.30;99.90
61253;DHT22;47127;47.516;8.596;2023-06-22T15:13:13;26.20;99.90
61253;DHT22;47127;47.516;8.596;2023-06-22T15:15:39;26.10;99.90
61253;DHT22;47127;47.516;8.596;2023-06-22T15:18:05;26.00;99.90
61253;DHT22;47127;47.516;8.596;2023-06-22T15:20:30;26.00;99.90
61253;DHT22;47127;47.516;8.596;2023-06-22T15:22:57;25.80;99.90
61253;DHT22;47127;47.516;8.596;2023-06-22T15:25:23;25.90;99.90
61253;DHT22;47127;47.516;8.596;2023-06-22T15:27:48;26.00;99.90
61253;DHT22;47127;47.516;8.596;2023-06-22T15:30:14;26.10;99.90